createdAt,value
2018-08-21T00:00:18.166Z,25.9
2018-08-21T00:00:58.654Z,25.9
2018-08-21T00:01:39.131Z,25.94
2018-08-21T00:02:19.618Z,25.94
2018-08-21T00:03:00.160Z,25.97
2018-08-21T00:03:40.641Z,25.99
2018-08-21T00:04:21.152Z,26.05
2018-08-21T00:05:01.661Z,25.88
2018-08-21T00:05:42.167Z,25.91
2018-08-21T00:06:22.642Z,25.92
2018-08-21T00:07:03.196Z,25.91
2018-08-21T00:07:43.712Z,25.8
2018-08-21T00:08:24.217Z,25.75
2018-08-21T00:09:04.717Z,25.77
2018-08-21T00:09:45.169Z,25.91
2018-08-21T00:10:25.658Z,25.9
2018-08-21T00:11:06.162Z,25.76
2018-08-21T00:11:46.682Z,25.76
2018-08-21T00:12:27.178Z,25.8
2018-08-21T00:13:07.678Z,25.65
2018-08-21T00:13:48.147Z,25.82
2018-08-21T00:14:28.630Z,25.75
2018-08-21T00:15:09.167Z,25.91
2018-08-21T00:15:49.661Z,25.73
2018-08-21T00:16:30.163Z,25.77
2018-08-21T00:17:10.616Z,25.88
2018-08-21T00:17:51.158Z,25.97
2018-08-21T00:18:31.635Z,25.88
2018-08-21T00:19:12.126Z,25.79
2018-08-21T00:19:52.670Z,25.77
2018-08-21T00:20:33.166Z,25.77
2018-08-21T00:21:13.696Z,25.79
2018-08-21T00:21:54.169Z,25.88
2018-08-21T00:22:34.671Z,25.77
2018-08-21T00:23:15.171Z,25.87
2018-08-21T00:23:55.669Z,25.82
2018-08-21T00:24:36.193Z,25.91
2018-08-21T00:25:16.664Z,25.87
2018-08-21T00:25:57.133Z,25.94
2018-08-21T00:26:37.646Z,25.87
2018-08-21T00:27:18.165Z,25.76
2018-08-21T00:27:58.643Z,25.88
2018-08-21T00:28:39.154Z,25.88
2018-08-21T00:29:19.627Z,25.9
2018-08-21T00:30:00.130Z,25.88
2018-08-21T00:30:40.590Z,25.83
2018-08-21T00:31:21.095Z,25.85
2018-08-21T00:32:01.617Z,25.9
2018-08-21T00:32:42.146Z,25.87
2018-08-21T00:33:22.602Z,25.76
2018-08-21T00:34:03.120Z,25.76
2018-08-21T00:34:43.593Z,25.76
2018-08-21T00:35:24.090Z,25.85
2018-08-21T00:36:04.579Z,25.79
2018-08-21T00:36:45.093Z,25.88
2018-08-21T00:37:25.576Z,25.91
2018-08-21T00:38:06.050Z,25.88
2018-08-21T00:38:46.544Z,25.91
2018-08-21T00:39:26.996Z,25.91
2018-08-21T00:40:07.527Z,25.91
2018-08-21T00:40:48.046Z,25.92
2018-08-21T00:41:28.492Z,25.91
2018-08-21T00:42:08.984Z,25.85
2018-08-21T00:42:49.442Z,25.94
2018-08-21T00:43:29.948Z,25.79
2018-08-21T00:44:10.454Z,25.77
2018-08-21T00:44:50.980Z,25.88
2018-08-21T00:45:31.461Z,25.91
2018-08-21T00:46:11.943Z,25.79
2018-08-21T00:46:52.484Z,25.91
2018-08-21T00:47:32.973Z,25.91
2018-08-21T00:48:13.475Z,25.92
2018-08-21T00:48:54.000Z,25.91
2018-08-21T00:49:34.487Z,25.94
2018-08-21T00:50:15.657Z,25.88
2018-08-21T00:50:56.107Z,25.91
2018-08-21T00:51:36.634Z,25.92
2018-08-21T00:52:17.076Z,25.88
2018-08-21T00:52:57.581Z,25.91
2018-08-21T00:53:38.073Z,25.79
2018-08-21T00:54:18.593Z,25.76
2018-08-21T00:54:59.069Z,25.75
2018-08-21T00:55:39.617Z,25.76
2018-08-21T00:56:20.071Z,25.8
2018-08-21T00:57:00.535Z,25.8
2018-08-21T00:57:41.014Z,25.87
2018-08-21T00:58:21.536Z,25.79
2018-08-21T00:59:02.051Z,25.75
2018-08-21T00:59:42.556Z,25.65
2018-08-21T01:00:23.047Z,25.76
2018-08-21T01:01:03.513Z,25.8
2018-08-21T01:01:44.009Z,25.76
2018-08-21T01:02:24.541Z,25.67
2018-08-21T01:03:05.052Z,25.75
2018-08-21T01:03:45.581Z,25.77
2018-08-21T01:04:26.117Z,25.77
2018-08-21T01:05:06.605Z,25.72
2018-08-21T01:05:47.094Z,25.76
2018-08-21T01:06:27.605Z,25.75
2018-08-21T01:07:08.100Z,25.77
2018-08-21T01:07:48.546Z,25.77
2018-08-21T01:08:29.049Z,25.75
2018-08-21T01:09:09.530Z,25.73
2018-08-21T01:09:50.006Z,25.69
2018-08-21T01:10:30.584Z,25.72
2018-08-21T01:11:11.105Z,25.62
2018-08-21T01:11:51.568Z,25.72
2018-08-21T01:12:32.061Z,25.65
2018-08-21T01:13:12.551Z,25.69
2018-08-21T01:13:53.085Z,25.72
2018-08-21T01:14:33.610Z,25.64
2018-08-21T01:15:14.068Z,25.69
2018-08-21T01:15:54.580Z,25.62
2018-08-21T01:16:35.075Z,25.64
2018-08-21T01:17:15.608Z,25.6
2018-08-21T01:17:56.107Z,25.58
2018-08-21T01:18:36.655Z,25.6
2018-08-21T01:19:17.078Z,25.64
2018-08-21T01:19:57.523Z,25.5
2018-08-21T01:20:38.022Z,25.46
2018-08-21T01:21:18.541Z,25.46
2018-08-21T01:21:59.069Z,25.58
2018-08-21T01:22:39.536Z,25.51
2018-08-21T01:23:20.013Z,25.54
2018-08-21T01:24:00.496Z,25.61
2018-08-21T01:24:41.030Z,25.61
2018-08-21T01:25:21.486Z,25.62
2018-08-21T01:26:01.998Z,25.73
2018-08-21T01:26:42.474Z,25.61
2018-08-21T01:27:23.001Z,25.55
2018-08-21T01:28:03.480Z,25.61
2018-08-21T01:28:43.996Z,25.55
2018-08-21T01:29:24.437Z,25.61
2018-08-21T01:30:04.938Z,25.62
2018-08-21T01:30:45.391Z,25.61
2018-08-21T01:31:25.928Z,25.67
2018-08-21T01:32:06.412Z,25.62
2018-08-21T01:32:46.901Z,25.69
2018-08-21T01:33:27.402Z,25.64
2018-08-21T01:34:07.987Z,25.64
2018-08-21T01:34:48.385Z,25.64
2018-08-21T01:35:28.896Z,25.65
2018-08-21T01:36:09.420Z,25.6
2018-08-21T01:36:49.927Z,25.55
2018-08-21T01:37:30.416Z,25.64
2018-08-21T01:38:10.917Z,25.62
2018-08-21T01:38:51.433Z,25.62
2018-08-21T01:39:31.903Z,25.72
2018-08-21T01:40:12.415Z,25.69
2018-08-21T01:40:52.953Z,25.65
2018-08-21T01:41:33.412Z,25.58
2018-08-21T01:42:13.909Z,25.55
2018-08-21T01:42:54.430Z,25.55
2018-08-21T01:43:34.971Z,25.51
2018-08-21T01:44:15.475Z,25.45
2018-08-21T01:44:55.959Z,25.54
2018-08-21T01:45:36.476Z,25.55
2018-08-21T01:46:16.960Z,25.46
2018-08-21T01:46:57.468Z,25.52
2018-08-21T01:47:37.965Z,25.57
2018-08-21T01:48:18.418Z,25.52
2018-08-21T01:48:58.950Z,25.51
2018-08-21T01:49:39.518Z,25.46
2018-08-21T01:50:20.050Z,25.55
2018-08-21T01:51:00.488Z,25.51
2018-08-21T01:51:41.005Z,25.51
2018-08-21T01:52:21.498Z,25.57
2018-08-21T01:53:02.018Z,25.57
2018-08-21T01:53:42.555Z,25.51
2018-08-21T01:54:23.056Z,25.52
2018-08-21T01:55:03.571Z,25.45
2018-08-21T01:55:44.070Z,25.45
2018-08-21T01:56:24.583Z,25.51
2018-08-21T01:57:05.074Z,25.52
2018-08-21T01:57:45.564Z,25.51
2018-08-21T01:58:26.068Z,25.46
2018-08-21T01:59:06.561Z,25.43
2018-08-21T01:59:47.033Z,25.46
2018-08-21T02:00:27.545Z,25.43
2018-08-21T02:01:08.032Z,25.45
2018-08-21T02:01:48.506Z,25.32
2018-08-21T02:02:29.008Z,25.28
2018-08-21T02:03:09.551Z,25.33
2018-08-21T02:03:50.044Z,25.32
2018-08-21T02:04:30.484Z,25.35
2018-08-21T02:05:11.000Z,25.42
2018-08-21T02:05:51.516Z,25.3
2018-08-21T02:06:31.992Z,25.35
2018-08-21T02:07:12.548Z,25.42
2018-08-21T02:07:53.042Z,25.4
2018-08-21T02:08:33.553Z,25.38
2018-08-21T02:09:14.027Z,25.33
2018-08-21T02:09:54.540Z,25.39
2018-08-21T02:10:34.997Z,25.36
2018-08-21T02:11:15.513Z,25.4
2018-08-21T02:11:56.020Z,25.27
2018-08-21T02:12:36.503Z,25.32
2018-08-21T02:13:17.040Z,25.28
2018-08-21T02:13:57.488Z,25.36
2018-08-21T02:14:38.014Z,25.42
2018-08-21T02:15:18.484Z,25.35
2018-08-21T02:15:59.042Z,25.42
2018-08-21T02:16:39.529Z,25.42
2018-08-21T02:17:20.027Z,25.32
2018-08-21T02:18:00.558Z,25.35
2018-08-21T02:18:41.069Z,25.32
2018-08-21T02:19:21.520Z,25.36
2018-08-21T02:20:02.046Z,25.39
2018-08-21T02:20:42.512Z,25.38
2018-08-21T02:21:22.995Z,25.33
2018-08-21T02:22:03.487Z,25.33
2018-08-21T02:22:44.025Z,25.38
2018-08-21T02:23:24.477Z,25.33
2018-08-21T02:24:05.011Z,25.3
2018-08-21T02:24:45.524Z,25.32
2018-08-21T02:25:25.978Z,25.39
2018-08-21T02:26:06.493Z,25.35
2018-08-21T02:26:47.012Z,25.39
2018-08-21T02:27:27.520Z,25.35
2018-08-21T02:28:08.030Z,25.45
2018-08-21T02:28:48.549Z,25.39
2018-08-21T02:29:29.017Z,25.36
2018-08-21T02:30:09.548Z,25.36
2018-08-21T02:30:50.021Z,25.32
2018-08-21T02:31:30.531Z,25.45
2018-08-21T02:32:11.019Z,25.42
2018-08-21T02:32:51.520Z,25.39
2018-08-21T02:33:32.016Z,25.25
2018-08-21T02:34:12.519Z,25.17
2018-08-21T02:34:52.969Z,25.1
2018-08-21T02:35:33.483Z,25.13
2018-08-21T02:36:14.029Z,25.2
2018-08-21T02:36:54.489Z,25.14
2018-08-21T02:37:34.951Z,25.1
2018-08-21T02:38:15.513Z,25.13
2018-08-21T02:38:55.941Z,25.18
2018-08-21T02:39:36.426Z,25.1
2018-08-21T02:40:16.953Z,25.05
2018-08-21T02:40:57.465Z,25.09
2018-08-21T02:41:37.958Z,25.03
2018-08-21T02:42:18.477Z,25.13
2018-08-21T02:42:58.973Z,25.14
2018-08-21T02:43:39.469Z,25.1
2018-08-21T02:44:19.956Z,25.15
2018-08-21T02:45:00.453Z,25.25
2018-08-21T02:45:40.991Z,25.21
2018-08-21T02:46:21.471Z,25.14
2018-08-21T02:47:02.023Z,25.24
2018-08-21T02:47:42.509Z,25.15
2018-08-21T02:48:22.964Z,25.32
2018-08-21T02:49:03.432Z,25.18
2018-08-21T02:49:43.956Z,25.23
2018-08-21T02:50:24.472Z,25.25
2018-08-21T02:51:04.920Z,25.24
2018-08-21T02:51:45.451Z,25.13
2018-08-21T02:52:25.928Z,25.25
2018-08-21T02:53:06.399Z,25.2
2018-08-21T02:53:46.912Z,25.23
2018-08-21T02:54:27.463Z,25.2
2018-08-21T02:55:07.940Z,25.08
2018-08-21T02:55:48.384Z,25.17
2018-08-21T02:56:28.909Z,25.1
2018-08-21T02:57:09.424Z,25.13
2018-08-21T02:57:49.905Z,25.08
2018-08-21T02:58:30.446Z,25.1
2018-08-21T02:59:11.054Z,25.13
2018-08-21T02:59:51.510Z,25.05
2018-08-21T03:00:32.029Z,25.13
2018-08-21T03:01:12.565Z,25.1
2018-08-21T03:01:53.037Z,25.18
2018-08-21T03:02:33.562Z,25.09
2018-08-21T03:03:14.094Z,25.18
2018-08-21T03:03:54.556Z,25.06
2018-08-21T03:04:35.076Z,25.13
2018-08-21T03:05:15.540Z,25.08
2018-08-21T03:05:56.048Z,25.05
2018-08-21T03:06:36.618Z,25.1
2018-08-21T03:07:17.150Z,25
2018-08-21T03:07:57.614Z,25.03
2018-08-21T03:08:38.261Z,25.03
2018-08-21T03:09:18.800Z,25.03
2018-08-21T03:09:59.332Z,25.06
2018-08-21T03:10:39.832Z,25
2018-08-21T03:11:20.366Z,25.05
2018-08-21T03:12:00.803Z,24.95
2018-08-21T03:12:41.414Z,24.91
2018-08-21T03:13:21.880Z,24.9
2018-08-21T03:14:02.394Z,25
2018-08-21T03:14:42.862Z,25.03
2018-08-21T03:15:23.385Z,24.93
2018-08-21T03:16:03.911Z,24.99
2018-08-21T03:16:44.348Z,24.99
2018-08-21T03:17:24.841Z,24.91
2018-08-21T03:18:05.341Z,24.96
2018-08-21T03:18:45.837Z,25.03
2018-08-21T03:19:26.345Z,24.98
2018-08-21T03:20:06.888Z,24.98
2018-08-21T03:20:47.375Z,24.95
2018-08-21T03:21:27.876Z,25.02
2018-08-21T03:22:08.321Z,25
2018-08-21T03:22:48.835Z,24.91
2018-08-21T03:23:29.358Z,24.98
2018-08-21T03:24:09.815Z,25.06
2018-08-21T03:24:50.329Z,24.93
2018-08-21T03:25:30.823Z,24.9
2018-08-21T03:26:11.310Z,24.91
2018-08-21T03:26:51.780Z,24.95
2018-08-21T03:27:32.247Z,24.9
2018-08-21T03:28:12.740Z,24.83
2018-08-21T03:28:53.244Z,24.85
2018-08-21T03:29:33.748Z,24.88
2018-08-21T03:30:14.192Z,24.87
2018-08-21T03:30:54.720Z,24.87
2018-08-21T03:31:35.225Z,24.83
2018-08-21T03:32:15.687Z,24.78
2018-08-21T03:32:56.238Z,24.81
2018-08-21T03:33:36.670Z,24.68
2018-08-21T03:34:17.212Z,24.76
2018-08-21T03:34:57.695Z,24.78
2018-08-21T03:35:38.148Z,24.81
2018-08-21T03:36:18.684Z,24.91
2018-08-21T03:36:59.135Z,24.76
2018-08-21T03:37:39.701Z,24.62
2018-08-21T03:38:20.134Z,24.68
2018-08-21T03:39:00.654Z,24.77
2018-08-21T03:39:41.135Z,24.71
2018-08-21T03:40:21.620Z,24.62
2018-08-21T03:41:02.138Z,24.68
2018-08-21T03:41:42.670Z,24.65
2018-08-21T03:42:23.169Z,24.67
2018-08-21T03:43:03.639Z,24.52
2018-08-21T03:43:44.117Z,24.52
2018-08-21T03:44:24.634Z,24.52
2018-08-21T03:45:05.199Z,24.62
2018-08-21T03:45:45.676Z,24.49
2018-08-21T03:46:26.201Z,24.55
2018-08-21T03:47:06.654Z,24.46
2018-08-21T03:47:47.141Z,24.52
2018-08-21T03:48:27.629Z,24.58
2018-08-21T03:49:08.097Z,24.55
2018-08-21T03:49:48.606Z,24.55
2018-08-21T03:50:29.124Z,24.55
2018-08-21T03:51:09.625Z,24.5
2018-08-21T03:51:50.089Z,24.47
2018-08-21T03:52:30.563Z,24.57
2018-08-21T03:53:11.096Z,24.53
2018-08-21T03:53:51.556Z,24.57
2018-08-21T03:54:32.093Z,24.58
2018-08-21T03:55:12.622Z,24.61
2018-08-21T03:55:53.146Z,24.6
2018-08-21T03:56:33.679Z,24.62
2018-08-21T03:57:14.147Z,24.69
2018-08-21T03:57:54.665Z,24.73
2018-08-21T03:58:35.138Z,24.67
2018-08-21T03:59:15.641Z,24.68
2018-08-21T03:59:56.166Z,24.67
2018-08-21T04:00:36.704Z,24.68
2018-08-21T04:01:17.141Z,24.62
2018-08-21T04:01:57.665Z,24.64
2018-08-21T04:02:38.178Z,24.52
2018-08-21T04:03:18.659Z,24.68
2018-08-21T04:03:59.154Z,24.62
2018-08-21T04:04:39.616Z,24.46
2018-08-21T04:05:20.253Z,24.55
2018-08-21T04:06:00.732Z,24.55
2018-08-21T04:06:41.209Z,24.53
2018-08-21T04:07:21.699Z,24.47
2018-08-21T04:08:02.276Z,24.5
2018-08-21T04:08:42.779Z,24.5
2018-08-21T04:09:23.258Z,24.43
2018-08-21T04:10:03.758Z,24.52
2018-08-21T04:10:44.380Z,24.53
2018-08-21T04:11:24.825Z,24.46
2018-08-21T04:12:05.420Z,24.52
2018-08-21T04:12:45.936Z,24.46
2018-08-21T04:13:26.438Z,24.55
2018-08-21T04:14:06.891Z,24.62
2018-08-21T04:14:47.367Z,24.53
2018-08-21T04:15:27.866Z,24.52
2018-08-21T04:16:08.354Z,24.6
2018-08-21T04:16:48.888Z,24.52
2018-08-21T04:17:29.349Z,24.68
2018-08-21T04:18:09.872Z,24.61
2018-08-21T04:18:50.383Z,24.67
2018-08-21T04:19:30.827Z,24.62
2018-08-21T04:20:11.342Z,24.62
2018-08-21T04:20:51.868Z,24.61
2018-08-21T04:21:32.357Z,24.57
2018-08-21T04:22:12.889Z,24.5
2018-08-21T04:22:53.354Z,24.49
2018-08-21T04:23:33.882Z,24.49
2018-08-21T04:24:14.346Z,24.52
2018-08-21T04:24:54.791Z,24.53
2018-08-21T04:25:35.346Z,24.62
2018-08-21T04:26:15.787Z,24.55
2018-08-21T04:26:56.296Z,24.52
2018-08-21T04:27:36.821Z,24.55
2018-08-21T04:28:17.282Z,24.65
2018-08-21T04:28:57.793Z,24.69
2018-08-21T04:29:38.266Z,24.73
2018-08-21T04:30:18.789Z,24.68
2018-08-21T04:30:59.262Z,24.68
2018-08-21T04:31:39.817Z,24.68
2018-08-21T04:32:20.303Z,24.73
2018-08-21T04:33:00.822Z,24.67
2018-08-21T04:33:41.337Z,24.61
2018-08-21T04:34:21.777Z,24.68
2018-08-21T04:35:02.304Z,24.64
2018-08-21T04:35:42.850Z,24.68
2018-08-21T04:36:23.357Z,24.64
2018-08-21T04:37:03.801Z,24.55
2018-08-21T04:37:44.295Z,24.58
2018-08-21T04:38:24.815Z,24.64
2018-08-21T04:39:05.265Z,24.46
2018-08-21T04:39:45.762Z,24.47
2018-08-21T04:40:26.303Z,24.57
2018-08-21T04:41:06.749Z,24.6
2018-08-21T04:41:47.215Z,24.46
2018-08-21T04:42:27.708Z,24.47
2018-08-21T04:43:08.180Z,24.57
2018-08-21T04:43:48.654Z,24.61
2018-08-21T04:44:29.196Z,24.61
2018-08-21T04:45:09.652Z,24.5
2018-08-21T04:45:50.165Z,24.5
2018-08-21T04:46:30.767Z,24.53
2018-08-21T04:47:11.104Z,24.64
2018-08-21T04:47:51.547Z,24.68
2018-08-21T04:48:32.063Z,24.69
2018-08-21T04:49:12.542Z,24.64
2018-08-21T04:49:53.059Z,24.55
2018-08-21T04:50:33.609Z,24.47
2018-08-21T04:51:14.106Z,24.57
2018-08-21T04:51:54.570Z,24.69
2018-08-21T04:52:35.033Z,24.67
2018-08-21T04:53:15.547Z,24.65
2018-08-21T04:53:56.088Z,24.77
2018-08-21T04:54:36.591Z,24.69
2018-08-21T04:55:17.105Z,24.64
2018-08-21T04:55:57.604Z,24.62
2018-08-21T04:56:38.080Z,24.64
2018-08-21T04:57:18.595Z,24.64
2018-08-21T04:57:59.008Z,24.52
2018-08-21T04:58:39.768Z,24.62
2018-08-21T04:59:20.106Z,24.67
2018-08-21T05:00:00.624Z,24.71
2018-08-21T05:00:41.095Z,24.69
2018-08-21T05:01:21.555Z,24.68
2018-08-21T05:02:02.058Z,24.6
2018-08-21T05:02:42.530Z,24.76
2018-08-21T05:03:23.061Z,24.64
2018-08-21T05:04:03.600Z,24.76
2018-08-21T05:04:44.046Z,24.83
2018-08-21T05:05:24.547Z,24.71
2018-08-21T05:06:05.084Z,24.77
2018-08-21T05:06:45.595Z,24.62
2018-08-21T05:07:26.103Z,24.68
2018-08-21T05:08:06.590Z,24.67
2018-08-21T05:08:47.078Z,24.62
2018-08-21T05:09:27.545Z,24.67
2018-08-21T05:10:08.034Z,24.61
2018-08-21T05:10:48.527Z,24.55
2018-08-21T05:11:29.039Z,24.68
2018-08-21T05:12:09.609Z,24.78
2018-08-21T05:12:50.027Z,24.78
2018-08-21T05:13:31.050Z,24.73
2018-08-21T05:14:10.994Z,24.77
2018-08-21T05:14:51.476Z,24.71
2018-08-21T05:15:32.004Z,24.73
2018-08-21T05:16:12.441Z,24.65
2018-08-21T05:16:53.026Z,24.64
2018-08-21T05:17:33.500Z,24.65
2018-08-21T05:18:14.052Z,24.57
2018-08-21T05:18:54.674Z,24.61
2018-08-21T05:19:35.213Z,24.65
2018-08-21T05:20:15.728Z,24.65
2018-08-21T05:20:56.174Z,24.77
2018-08-21T05:21:36.709Z,24.68
2018-08-21T05:22:17.191Z,24.65
2018-08-21T05:22:57.671Z,24.68
2018-08-21T05:23:38.176Z,24.69
2018-08-21T05:24:18.636Z,24.65
2018-08-21T05:24:59.148Z,24.8
2018-08-21T05:25:39.635Z,24.8
2018-08-21T05:26:20.160Z,24.83
2018-08-21T05:27:00.643Z,24.8
2018-08-21T05:27:41.122Z,24.91
2018-08-21T05:28:21.685Z,24.91
2018-08-21T05:29:02.158Z,24.88
2018-08-21T05:29:42.614Z,24.9
2018-08-21T05:30:23.157Z,24.85
2018-08-21T05:31:03.655Z,24.78
2018-08-21T05:31:44.224Z,24.93
2018-08-21T05:32:24.747Z,24.88
2018-08-21T05:33:05.230Z,24.85
2018-08-21T05:33:45.774Z,24.8
2018-08-21T05:34:26.270Z,24.83
2018-08-21T05:35:06.739Z,24.8
2018-08-21T05:35:47.208Z,24.8
2018-08-21T05:36:27.727Z,24.85
2018-08-21T05:37:08.171Z,24.91
2018-08-21T05:37:48.698Z,24.87
2018-08-21T05:38:29.162Z,24.93
2018-08-21T05:39:09.659Z,24.95
2018-08-21T05:39:50.159Z,24.9
2018-08-21T05:40:30.718Z,24.9
2018-08-21T05:41:11.172Z,24.9
2018-08-21T05:41:51.741Z,24.9
2018-08-21T05:42:32.221Z,24.91
2018-08-21T05:43:12.766Z,24.91
2018-08-21T05:43:53.339Z,24.9
2018-08-21T05:44:33.759Z,24.98
2018-08-21T05:45:14.243Z,24.9
2018-08-21T05:45:54.766Z,24.95
2018-08-21T05:46:35.287Z,24.85
2018-08-21T05:47:15.743Z,24.93
2018-08-21T05:47:56.244Z,24.88
2018-08-21T05:48:36.768Z,24.96
2018-08-21T05:49:17.251Z,24.9
2018-08-21T05:49:57.778Z,24.91
2018-08-21T05:50:38.371Z,24.93
2018-08-21T05:51:18.894Z,24.98
2018-08-21T05:51:59.375Z,24.9
2018-08-21T05:52:39.886Z,24.93
2018-08-21T05:53:20.417Z,25
2018-08-21T05:54:00.918Z,24.98
2018-08-21T05:54:41.415Z,24.96
2018-08-21T05:55:22.009Z,24.95
2018-08-21T05:56:02.364Z,24.88
2018-08-21T05:56:42.839Z,24.9
2018-08-21T05:57:23.318Z,24.91
2018-08-21T05:58:03.799Z,24.91
2018-08-21T05:58:44.348Z,24.84
2018-08-21T05:59:24.880Z,24.9
2018-08-21T06:00:05.411Z,24.84
2018-08-21T06:00:45.836Z,24.88
2018-08-21T06:01:26.337Z,24.87
2018-08-21T06:02:06.864Z,24.88
2018-08-21T06:02:47.351Z,24.93
2018-08-21T06:03:27.840Z,24.9
2018-08-21T06:04:08.326Z,25
2018-08-21T06:04:48.800Z,25.03
2018-08-21T06:05:29.289Z,25.03
2018-08-21T06:06:09.786Z,24.84
2018-08-21T06:06:50.430Z,24.88
2018-08-21T06:07:31.130Z,24.93
2018-08-21T06:08:11.640Z,24.91
2018-08-21T06:08:52.110Z,24.93
2018-08-21T06:09:32.576Z,24.9
2018-08-21T06:10:13.086Z,24.88
2018-08-21T06:10:53.634Z,24.95
2018-08-21T06:11:34.086Z,24.95
2018-08-21T06:12:14.601Z,24.9
2018-08-21T06:12:55.112Z,24.85
2018-08-21T06:13:35.741Z,24.91
2018-08-21T06:14:16.079Z,24.88
2018-08-21T06:14:56.600Z,24.91
2018-08-21T06:15:37.074Z,24.88
2018-08-21T06:16:17.547Z,24.93
2018-08-21T06:16:58.066Z,24.91
2018-08-21T06:17:38.566Z,24.95
2018-08-21T06:18:19.101Z,24.93
2018-08-21T06:18:59.581Z,24.9
2018-08-21T06:19:40.072Z,25.02
2018-08-21T06:20:20.565Z,25.09
2018-08-21T06:21:01.072Z,25.03
2018-08-21T06:21:41.578Z,25.03
2018-08-21T06:22:22.066Z,25.08
2018-08-21T06:23:02.636Z,25.08
2018-08-21T06:23:43.135Z,25.13
2018-08-21T06:24:23.667Z,25.13
2018-08-21T06:25:04.159Z,25.05
2018-08-21T06:25:44.611Z,25.1
2018-08-21T06:26:25.076Z,25.1
2018-08-21T06:27:05.570Z,25.02
2018-08-21T06:27:46.059Z,25.05
2018-08-21T06:28:26.622Z,25.09
2018-08-21T06:29:07.056Z,25.13
2018-08-21T06:29:47.571Z,25.09
2018-08-21T06:30:28.038Z,25.1
2018-08-21T06:31:08.506Z,25.14
2018-08-21T06:31:49.041Z,25.09
2018-08-21T06:32:29.462Z,25.09
2018-08-21T06:33:10.007Z,25.13
2018-08-21T06:33:50.483Z,25.1
2018-08-21T06:34:31.038Z,25.17
2018-08-21T06:35:11.516Z,25.2
2018-08-21T06:35:52.077Z,25.24
2018-08-21T06:36:32.574Z,25.18
2018-08-21T06:37:13.089Z,25.3
2018-08-21T06:37:53.603Z,25.3
2018-08-21T06:38:34.133Z,25.2
2018-08-21T06:39:14.617Z,25.23
2018-08-21T06:39:55.306Z,25.27
2018-08-21T06:40:35.614Z,25.24
2018-08-21T06:41:16.097Z,25.18
2018-08-21T06:41:56.597Z,25.32
2018-08-21T06:42:37.090Z,25.35
2018-08-21T06:43:17.594Z,25.33
2018-08-21T06:43:58.080Z,25.32
2018-08-21T06:44:38.595Z,25.35
2018-08-21T06:45:19.109Z,25.32
2018-08-21T06:45:59.593Z,25.35
2018-08-21T06:46:40.169Z,25.3
2018-08-21T06:47:20.602Z,25.27
2018-08-21T06:48:01.123Z,25.32
2018-08-21T06:48:41.603Z,25.35
2018-08-21T06:49:22.044Z,25.43
2018-08-21T06:50:02.579Z,25.46
2018-08-21T06:50:43.068Z,25.55
2018-08-21T06:51:23.519Z,25.5
2018-08-21T06:52:04.084Z,25.58
2018-08-21T06:52:44.552Z,25.69
2018-08-21T06:53:25.070Z,25.76
2018-08-21T06:54:05.580Z,25.77
2018-08-21T06:54:46.087Z,25.92
2018-08-21T06:55:26.574Z,25.9
2018-08-21T06:56:07.093Z,26.02
2018-08-21T06:56:47.559Z,25.98
2018-08-21T06:57:28.089Z,26.05
2018-08-21T06:58:08.572Z,26.13
2018-08-21T06:58:49.032Z,26.07
2018-08-21T06:59:29.573Z,26.07
2018-08-21T07:00:10.080Z,26.13
2018-08-21T07:00:50.547Z,26.21
2018-08-21T07:01:30.988Z,26.15
2018-08-21T07:02:11.474Z,26.13
2018-08-21T07:02:51.966Z,26.1
2018-08-21T07:03:32.484Z,26.09
2018-08-21T07:04:12.981Z,26.09
2018-08-21T07:04:53.505Z,26.2
2018-08-21T07:05:33.973Z,26.13
2018-08-21T07:06:14.481Z,26.23
2018-08-21T07:06:54.973Z,26.12
2018-08-21T07:07:35.497Z,26.12
2018-08-21T07:08:15.995Z,26.12
2018-08-21T07:08:56.442Z,26.1
2018-08-21T07:09:36.975Z,26.09
2018-08-21T07:10:17.432Z,26.21
2018-08-21T07:10:57.968Z,26.23
2018-08-21T07:11:38.450Z,26.36
2018-08-21T07:12:18.968Z,26.36
2018-08-21T07:12:59.471Z,26.4
2018-08-21T07:13:40.002Z,26.5
2018-08-21T07:14:20.549Z,26.51
2018-08-21T07:15:01.021Z,26.5
2018-08-21T07:15:41.557Z,26.55
2018-08-21T07:16:22.079Z,26.6
2018-08-21T07:17:02.541Z,26.57
2018-08-21T07:17:43.066Z,26.57
2018-08-21T07:18:23.562Z,26.54
2018-08-21T07:19:04.020Z,26.63
2018-08-21T07:19:44.507Z,26.67
2018-08-21T07:20:25.003Z,26.76
2018-08-21T07:21:05.521Z,26.67
2018-08-21T07:21:46.007Z,26.7
2018-08-21T07:22:26.517Z,26.8
2018-08-21T07:23:07.012Z,26.77
2018-08-21T07:23:47.510Z,26.8
2018-08-21T07:24:28.004Z,26.92
2018-08-21T07:25:08.518Z,26.88
2018-08-21T07:25:49.006Z,26.91
2018-08-21T07:26:29.505Z,26.92
2018-08-21T07:27:10.009Z,26.84
2018-08-21T07:27:50.507Z,26.91
2018-08-21T07:28:30.984Z,26.89
2018-08-21T07:29:11.549Z,26.95
2018-08-21T07:29:52.001Z,26.91
2018-08-21T07:30:32.508Z,26.92
2018-08-21T07:31:12.963Z,26.99
2018-08-21T07:31:53.444Z,26.91
2018-08-21T07:32:33.938Z,26.89
2018-08-21T07:33:14.444Z,27.02
2018-08-21T07:33:54.942Z,27.07
2018-08-21T07:34:35.488Z,27.09
2018-08-21T07:35:15.979Z,27.13
2018-08-21T07:35:56.465Z,27.09
2018-08-21T07:36:36.946Z,27.12
2018-08-21T07:37:17.453Z,27.06
2018-08-21T07:37:57.970Z,27.07
2018-08-21T07:38:38.469Z,27.02
2018-08-21T07:39:18.987Z,27.09
2018-08-21T07:39:59.488Z,27.04
2018-08-21T07:40:39.997Z,27.09
2018-08-21T07:41:20.475Z,27.13
2018-08-21T07:42:00.962Z,27.17
2018-08-21T07:42:41.467Z,27.27
2018-08-21T07:43:21.926Z,27.06
2018-08-21T07:44:02.434Z,27.17
2018-08-21T07:44:43.079Z,26.95
2018-08-21T07:45:23.504Z,26.97
2018-08-21T07:46:04.004Z,26.97
2018-08-21T07:46:44.485Z,27.03
2018-08-21T07:47:25.115Z,27.09
2018-08-21T07:48:05.511Z,27.09
2018-08-21T07:48:45.990Z,26.95
2018-08-21T07:49:26.572Z,26.97
2018-08-21T07:50:06.961Z,26.87
2018-08-21T07:50:47.499Z,26.91
2018-08-21T07:51:27.984Z,26.94
2018-08-21T07:52:08.504Z,26.95
2018-08-21T07:52:48.978Z,26.87
2018-08-21T07:53:29.703Z,26.87
2018-08-21T07:54:09.959Z,26.91
2018-08-21T07:54:50.488Z,26.88
2018-08-21T07:55:30.981Z,26.92
2018-08-21T07:56:11.520Z,26.89
2018-08-21T07:56:52.005Z,26.82
2018-08-21T07:57:32.494Z,26.81
2018-08-21T07:58:13.046Z,26.87
2018-08-21T07:58:53.489Z,26.97
2018-08-21T07:59:33.973Z,26.85
2018-08-21T08:00:14.477Z,26.87
2018-08-21T08:00:54.942Z,26.91
2018-08-21T08:01:35.451Z,26.88
2018-08-21T08:02:15.953Z,26.89
2018-08-21T08:02:56.516Z,26.87
2018-08-21T08:03:37.029Z,26.85
2018-08-21T08:04:17.535Z,26.87
2018-08-21T08:04:57.988Z,26.91
2018-08-21T08:05:38.506Z,26.87
2018-08-21T08:06:19.020Z,26.95
2018-08-21T08:06:59.509Z,26.88
2018-08-21T08:07:40.075Z,26.95
2018-08-21T08:08:20.532Z,26.91
2018-08-21T08:09:01.051Z,26.94
2018-08-21T08:09:41.550Z,26.85
2018-08-21T08:10:22.054Z,26.87
2018-08-21T08:11:02.562Z,26.85
2018-08-21T08:11:43.050Z,27.02
2018-08-21T08:12:23.581Z,26.91
2018-08-21T08:13:04.041Z,26.87
2018-08-21T08:13:44.638Z,26.94
2018-08-21T08:14:25.109Z,26.99
2018-08-21T08:15:05.633Z,26.99
2018-08-21T08:15:46.216Z,26.95
2018-08-21T08:16:26.641Z,27.06
2018-08-21T08:17:07.132Z,26.97
2018-08-21T08:17:47.618Z,26.94
2018-08-21T08:18:28.140Z,26.99
2018-08-21T08:19:08.802Z,26.87
2018-08-21T08:19:49.189Z,27.07
2018-08-21T08:20:29.728Z,26.95
2018-08-21T08:21:10.181Z,27.13
2018-08-21T08:21:50.673Z,27.09
2018-08-21T08:22:31.217Z,27.12
2018-08-21T08:23:11.856Z,27.19
2018-08-21T08:23:52.237Z,27.17
2018-08-21T08:24:32.721Z,27.25
2018-08-21T08:25:13.283Z,27.28
2018-08-21T08:25:53.729Z,27.25
2018-08-21T08:26:34.228Z,27.28
2018-08-21T08:27:14.720Z,27.27
2018-08-21T08:27:55.220Z,27.28
2018-08-21T08:28:35.686Z,27.29
2018-08-21T08:29:16.255Z,27.27
2018-08-21T08:29:56.682Z,27.25
2018-08-21T08:30:37.185Z,27.21
2018-08-21T08:31:17.690Z,27.29
2018-08-21T08:31:58.202Z,27.28
2018-08-21T08:32:38.679Z,27.27
2018-08-21T08:33:19.425Z,27.41
2018-08-21T08:33:59.983Z,27.41
2018-08-21T08:34:40.447Z,27.39
2018-08-21T08:35:20.921Z,27.39
2018-08-21T08:36:01.612Z,27.44
2018-08-21T08:36:41.953Z,27.43
2018-08-21T08:37:22.468Z,27.39
2018-08-21T08:38:02.970Z,27.46
2018-08-21T08:38:43.473Z,27.43
2018-08-21T08:39:23.953Z,27.41
2018-08-21T08:40:04.435Z,27.4
2018-08-21T08:40:44.982Z,27.44
2018-08-21T08:41:25.487Z,27.4
2018-08-21T08:42:06.052Z,27.46
2018-08-21T08:42:46.421Z,27.5
2018-08-21T08:43:26.890Z,27.55
2018-08-21T08:44:07.420Z,27.5